sensor_id;sensor_type;location;lat;lon;timestamp;temperature;humidity
20654;DHT22;21083;50.898;4.902;2023-09-19T00:00:00;17.00;99.90
20654;DHT22;21083;50.898;4.902;2023-09-19T00:02:27;16.80;99.90
20654;DHT22;21083;50.898;4.902;2023-09-19T00:04:55;17.00;99.90
20654;DHT22;21083;50.898;4.902;2023-09-19T00:07:22;16.90;99.90
20654;DHT22;21083;50.898;4.902;2023-09-19T00:09:49;16.90;99.90
20654;DHT22;21083;50.898;4.902;2023-09-19T00:12:15;16.80;99.90
20654;DHT22;21083;50.898;4.902;2023-09-19T00:14:43;16.90;99.90
20654;DHT22;21083;50.898;4.902;2023-09-19T00:17:12;16.90;99.90
20654;DHT22;21083;50.898;4.902;2023-09-19T00:19:39;16.90;99.90
20654;DHT22;21083;50.898;4.902;2023-09-19T00:22:08;16.90;99.90
20654;DHT22;21083;50.898;4.902;2023-09-19T00:24:35;16.80;99.90
20654;DHT22;21083;50.898;4.902;2023-09-19T00:27:02;16.80;99.90
20654;DHT22;21083;50.898;4.902;2023-09-19T00:29:31;16.90;99.90
20654;DHT22;21083;50.898;4.902;2023-09-19T00:31:58;16.70;99.90
20654;DHT22;21083;50.898;4.902;2023-09-19T00:34:27;16.80;99.90
20654;DHT22;21083;50.898;4.902;2023-09-19T00:36:55;16.60;99.90
20654;DHT22;21083;50.898;4.902;2023-09-19T00:39:22;16.60;99.90
20654;DHT22;21083;50.898;4.902;2023-09-19T00:41:51;16.70;99.90
20654;DHT22;21083;50.898;4.902;2023-09-19T00:44:19;16.60;99.90
20654;DHT22;21083;50.898;4.902;2023-09-19T00:46:48;16.70;99.90
20654;DHT22;21083;50.898;4.902;2023-09-19T00:49:16;16.60;99.90
20654;DHT22;21083;50.898;4.902;2023-09-19T00:51:47;16.70;99.90
20654;DHT22;21083;50.898;4.902;2023-09-19T00:54:15;16.70;99.90
20654;DHT22;21083;50.898;4.902;2023-09-19T00:56:45;16.70;99.90
20654;DHT22;21083;50.898;4.902;2023-09-19T00:59:13;16.70;99.90
20654;DHT22;21083;50.898;4.902;2023-09-19T01:01:39;16.70;99.90
20654;DHT22;21083;50.898;4.902;2023-09-19T01:04:06;16.80;99.90
20654;DHT22;21083;50.898;4.902;2023-09-19T01:06:35;16.70;99.90
20654;DHT22;21083;50.898;4.902;2023-09-19T01:09:04;16.70;99.90
20654;DHT22;21083;50.898;4.902;2023-09-19T01:11:35;16.70;99.90
20654;DHT22;21083;50.898;4.902;2023-09-19T01:14:15;16.70;99.90
20654;DHT22;21083;50.898;4.902;2023-09-19T01:16:53;16.60;99.90
20654;DHT22;21083;50.898;4.902;2023-09-19T01:22:50;16.60;99.90
20654;DHT22;21083;50.898;4.902;2023-09-19T01:28:51;16.40;99.90
20654;DHT22;21083;50.898;4.902;2023-09-19T01:31:23;16.40;99.90
20654;DHT22;21083;50.898;4.902;2023-09-19T01:33:59;16.40;99.90
20654;DHT22;21083;50.898;4.902;2023-09-19T01:36:28;16.40;99.90
20654;DHT22;21083;50.898;4.902;2023-09-19T01:38:57;16.50;99.90
20654;DHT22;21083;50.898;4.902;2023-09-19T01:41:37;16.40;99.90
20654;DHT22;21083;50.898;4.902;2023-09-19T01:44:06;16.50;99.90
20654;DHT22;21083;50.898;4.902;2023-09-19T01:46:40;16.40;99.90
20654;DHT22;21083;50.898;4.902;2023-09-19T01:49:16;16.20;99.90
20654;DHT22;21083;50.898;4.902;2023-09-19T01:51:52;16.20;99.90
20654;DHT22;21083;50.898;4.902;2023-09-19T01:54:26;16.20;99.90
20654;DHT22;21083;50.898;4.902;2023-09-19T01:57:00;16.20;99.90
20654;DHT22;21083;50.898;4.902;2023-09-19T01:59:35;16.30;99.90
20654;DHT22;21083;50.898;4.902;2023-09-19T02:02:06;16.30;99.90
20654;DHT22;21083;50.898;4.902;2023-09-19T02:04:34;16.30;99.90
20654;DHT22;21083;50.898;4.902;2023-09-19T02:07:02;16.20;99.90
20654;DHT22;21083;50.898;4.902;2023-09-19T02:09:31;16.10;99.90
20654;DHT22;21083;50.898;4.902;2023-09-19T02:12:01;16.20;99.90
20654;DHT22;21083;50.898;4.902;2023-09-19T02:14:30;16.20;99.90
20654;DHT22;21083;50.898;4.902;2023-09-19T02:16:58;16.20;99.90
20654;DHT22;21083;50.898;4.902;2023-09-19T02:19:27;16.10;99.90
20654;DHT22;21083;50.898;4.902;2023-09-19T02:21:55;16.10;99.90
20654;DHT22;21083;50.898;4.902;2023-09-19T02:24:23;16.00;99.90
20654;DHT22;21083;50.898;4.902;2023-09-19T02:26:52;16.10;99.90
20654;DHT22;21083;50.898;4.902;2023-09-19T02:29:20;16.00;99.90
20654;DHT22;21083;50.898;4.902;2023-09-19T02:31:47;16.00;99.90
20654;DHT22;21083;50.898;4.902;2023-09-19T02:34:14;15.90;99.90
20654;DHT22;21083;50.898;4.902;2023-09-19T02:36:43;15.90;99.90
20654;DHT22;21083;50.898;4.902;2023-09-19T02:39:11;15.90;99.90
20654;DHT22;21083;50.898;4.902;2023-09-19T02:41:38;16.00;99.90
20654;DHT22;21083;50.898;4.902;2023-09-19T02:44:07;16.00;99.90
20654;DHT22;21083;50.898;4.902;2023-09-19T02:46:34;15.90;99.90
20654;DHT22;21083;50.898;4.902;2023-09-19T02:49:02;15.90;99.90
20654;DHT22;21083;50.898;4.902;2023-09-19T02:51:31;15.80;99.90
20654;DHT22;21083;50.898;4.902;2023-09-19T02:53:59;15.80;99.90
20654;DHT22;21083;50.898;4.902;2023-09-19T02:56:28;16.00;99.90
20654;DHT22;21083;50.898;4.902;2023-09-19T02:58:56;16.00;99.90
20654;DHT22;21083;50.898;4.902;2023-09-19T03:01:23;15.90;99.90
20654;DHT22;21083;50.898;4.902;2023-09-19T03:03:50;15.90;99.90
20654;DHT22;21083;50.898;4.902;2023-09-19T03:06:17;15.90;99.90
20654;DHT22;21083;50.898;4.902;2023-09-19T03:08:45;15.80;99.90
20654;DHT22;21083;50.898;4.902;2023-09-19T03:11:15;15.80;99.90
20654;DHT22;21083;50.898;4.902;2023-09-19T03:13:50;15.90;99.90
20654;DHT22;21083;50.898;4.902;2023-09-19T03:16:17;15.70;99.90
20654;DHT22;21083;50.898;4.902;2023-09-19T03:18:44;15.70;99.90
20654;DHT22;21083;50.898;4.902;2023-09-19T03:21:13;15.70;99.90
20654;DHT22;21083;50.898;4.902;2023-09-19T03:23:40;15.80;99.90
20654;DHT22;21083;50.898;4.902;2023-09-19T03:26:09;15.80;99.90
20654;DHT22;21083;50.898;4.902;2023-09-19T03:28:37;15.80;99.90
20654;DHT22;21083;50.898;4.902;2023-09-19T03:31:05;15.70;99.90
20654;DHT22;21083;50.898;4.902;2023-09-19T03:33:33;15.90;99.90
20654;DHT22;21083;50.898;4.902;2023-09-19T03:36:01;15.90;99.90
20654;DHT22;21083;50.898;4.902;2023-09-19T03:38:30;15.90;99.90
20654;DHT22;21083;50.898;4.902;2023-09-19T03:40:58;15.80;99.90
20654;DHT22;21083;50.898;4.902;2023-09-19T03:43:25;15.90;99.90
20654;DHT22;21083;50.898;4.902;2023-09-19T03:45:53;15.90;99.90
20654;DHT22;21083;50.898;4.902;2023-09-19T03:48:21;15.80;99.90
20654;DHT22;21083;50.898;4.902;2023-09-19T03:50:48;15.90;99.90
20654;DHT22;21083;50.898;4.902;2023-09-19T03:53:16;15.80;99.90
20654;DHT22;21083;50.898;4.902;2023-09-19T03:55:45;15.90;99.90
20654;DHT22;21083;50.898;4.902;2023-09-19T03:58:12;16.00;99.90
20654;DHT22;21083;50.898;4.902;2023-09-19T04:00:40;16.00;99.90
20654;DHT22;21083;50.898;4.902;2023-09-19T04:03:08;15.90;99.90
20654;DHT22;21083;50.898;4.902;2023-09-19T04:05:44;15.90;99.90
20654;DHT22;21083;50.898;4.902;2023-09-19T04:08:12;15.90;99.90
20654;DHT22;21083;50.898;4.902;2023-09-19T04:10:42;16.00;99.90
20654;DHT22;21083;50.898;4.902;2023-09-19T04:13:10;15.90;99.90
20654;DHT22;21083;50.898;4.902;2023-09-19T04:15:37;15.90;99.90
20654;DHT22;21083;50.898;4.902;2023-09-19T04:18:06;15.90;99.90
20654;DHT22;21083;50.898;4.902;2023-09-19T04:20:34;15.80;99.90
20654;DHT22;21083;50.898;4.902;2023-09-19T04:23:01;15.80;99.90
20654;DHT22;21083;50.898;4.902;2023-09-19T04:25:30;15.80;99.90
20654;DHT22;21083;50.898;4.902;2023-09-19T04:27:57;15.80;99.90
20654;DHT22;21083;50.898;4.902;2023-09-19T04:30:24;15.80;99.90
20654;DHT22;21083;50.898;4.902;2023-09-19T04:32:52;15.60;99.90
20654;DHT22;21083;50.898;4.902;2023-09-19T04:35:19;15.60;99.90
20654;DHT22;21083;50.898;4.902;2023-09-19T04:37:48;15.60;99.90
20654;DHT22;21083;50.898;4.902;2023-09-19T04:40:15;15.60;99.90
20654;DHT22;21083;50.898;4.902;2023-09-19T04:42:43;15.60;99.90
20654;DHT22;21083;50.898;4.902;2023-09-19T04:45:11;15.50;99.90
20654;DHT22;21083;50.898;4.902;2023-09-19T04:47:38;15.50;99.90
20654;DHT22;21083;50.898;4.902;2023-09-19T04:50:07;15.50;99.90
20654;DHT22;21083;50.898;4.902;2023-09-19T04:52:40;15.50;99.90
20654;DHT22;21083;50.898;4.902;2023-09-19T04:55:12;15.50;99.90
20654;DHT22;21083;50.898;4.902;2023-09-19T04:57:42;15.50;99.90
20654;DHT22;21083;50.898;4.902;2023-09-19T05:00:11;15.40;99.90
20654;DHT22;21083;50.898;4.902;2023-09-19T05:02:40;15.30;99.90
20654;DHT22;21083;50.898;4.902;2023-09-19T05:05:08;15.40;99.90
20654;DHT22;21083;50.898;4.902;2023-09-19T05:07:36;15.40;99.90
20654;DHT22;21083;50.898;4.902;2023-09-19T05:10:04;15.40;99.90
20654;DHT22;21083;50.898;4.902;2023-09-19T05:12:34;15.40;99.90
20654;DHT22;21083;50.898;4.902;2023-09-19T05:15:01;15.40;99.90
20654;DHT22;21083;50.898;4.902;2023-09-19T05:17:29;15.30;99.90
20654;DHT22;21083;50.898;4.902;2023-09-19T05:19:56;15.20;99.90
20654;DHT22;21083;50.898;4.902;2023-09-19T05:22:27;15.30;99.90
20654;DHT22;21083;50.898;4.902;2023-09-19T05:24:54;15.30;99.90
20654;DHT22;21083;50.898;4.902;2023-09-19T05:27:21;15.20;99.90
20654;DHT22;21083;50.898;4.902;2023-09-19T05:29:50;15.20;99.90
20654;DHT22;21083;50.898;4.902;2023-09-19T05:32:18;15.20;99.90
20654;DHT22;21083;50.898;4.902;2023-09-19T05:34:45;15.30;99.90
20654;DHT22;21083;50.898;4.902;2023-09-19T05:37:13;15.20;99.90
20654;DHT22;21083;50.898;4.902;2023-09-19T05:39:41;15.20;99.90
20654;DHT22;21083;50.898;4.902;2023-09-19T05:42:09;15.30;99.90
20654;DHT22;21083;50.898;4.902;2023-09-19T05:44:36;15.30;99.90
20654;DHT22;21083;50.898;4.902;2023-09-19T05:47:05;15.10;99.90
20654;DHT22;21083;50.898;4.902;2023-09-19T05:49:34;15.10;99.90
20654;DHT22;21083;50.898;4.902;2023-09-19T05:52:04;15.10;99.90
20654;DHT22;21083;50.898;4.902;2023-09-19T05:54:32;15.20;99.90
20654;DHT22;21083;50.898;4.902;2023-09-19T05:56:59;15.20;99.90
20654;DHT22;21083;50.898;4.902;2023-09-19T05:59:27;15.20;99.90
20654;DHT22;21083;50.898;4.902;2023-09-19T06:01:54;15.20;99.90
20654;DHT22;21083;50.898;4.902;2023-09-19T06:04:22;15.30;99.90
20654;DHT22;21083;50.898;4.902;2023-09-19T06:06:51;15.40;99.90
20654;DHT22;21083;50.898;4.902;2023-09-19T06:09:18;15.30;99.90
20654;DHT22;21083;50.898;4.902;2023-09-19T06:11:45;15.10;99.90
20654;DHT22;21083;50.898;4.902;2023-09-19T06:14:12;15.10;99.90
20654;DHT22;21083;50.898;4.902;2023-09-19T06:16:39;15.20;99.90
20654;DHT22;21083;50.898;4.902;2023-09-19T06:19:07;15.30;99.90
20654;DHT22;21083;50.898;4.902;2023-09-19T06:21:36;15.50;99.90
20654;DHT22;21083;50.898;4.902;2023-09-19T06:24:03;15.50;99.90
20654;DHT22;21083;50.898;4.902;2023-09-19T06:26:30;15.50;99.90
20654;DHT22;21083;50.898;4.902;2023-09-19T06:28:57;15.50;99.90
20654;DHT22;21083;50.898;4.902;2023-09-19T06:31:25;15.40;99.90
20654;DHT22;21083;50.898;4.902;2023-09-19T06:33:52;15.50;99.90
20654;DHT22;21083;50.898;4.902;2023-09-19T06:36:19;15.50;99.90
20654;DHT22;21083;50.898;4.902;2023-09-19T06:38:49;15.50;99.90
20654;DHT22;21083;50.898;4.902;2023-09-19T06:41:16;15.50;99.90
20654;DHT22;21083;50.898;4.902;2023-09-19T06:43:44;15.60;99.90
20654;DHT22;21083;50.898;4.902;2023-09-19T06:46:11;15.50;99.90
20654;DHT22;21083;50.898;4.902;2023-09-19T06:48:38;15.60;99.90
20654;DHT22;21083;50.898;4.902;2023-09-19T06:51:06;15.60;99.90
20654;DHT22;21083;50.898;4.902;2023-09-19T06:53:34;15.70;99.90
20654;DHT22;21083;50.898;4.902;2023-09-19T06:56:03;15.70;99.90
20654;DHT22;21083;50.898;4.902;2023-09-19T06:58:30;15.70;99.90
20654;DHT22;21083;50.898;4.902;2023-09-19T07:00:58;15.80;99.90
20654;DHT22;21083;50.898;4.902;2023-09-19T07:03:25;15.90;99.90
20654;DHT22;21083;50.898;4.902;2023-09-19T07:05:54;15.90;99.90
20654;DHT22;21083;50.898;4.902;2023-09-19T07:08:21;15.90;99.90
20654;DHT22;21083;50.898;4.902;2023-09-19T07:10:48;15.90;99.90
20654;DHT22;21083;50.898;4.902;2023-09-19T07:13:19;15.90;99.90
20654;DHT22;21083;50.898;4.902;2023-09-19T07:15:46;15.90;99.90
20654;DHT22;21083;50.898;4.902;2023-09-19T07:18:16;15.90;99.90
20654;DHT22;21083;50.898;4.902;2023-09-19T07:20:43;15.90;99.90
20654;DHT22;21083;50.898;4.902;2023-09-19T07:23:15;16.00;99.90
20654;DHT22;21083;50.898;4.902;2023-09-19T07:25:43;16.00;99.90
20654;DHT22;21083;50.898;4.902;2023-09-19T07:28:12;15.90;99.90
20654;DHT22;21083;50.898;4.902;2023-09-19T07:30:40;15.90;99.90
20654;DHT22;21083;50.898;4.902;2023-09-19T07:33:08;16.00;99.90
20654;DHT22;21083;50.898;4.902;2023-09-19T07:35:37;16.10;99.90
20654;DHT22;21083;50.898;4.902;2023-09-19T07:38:05;16.10;99.90
20654;DHT22;21083;50.898;4.902;2023-09-19T07:40:33;16.10;99.90
20654;DHT22;21083;50.898;4.902;2023-09-19T07:43:00;16.10;99.90
20654;DHT22;21083;50.898;4.902;2023-09-19T07:45:29;16.20;99.90
20654;DHT22;21083;50.898;4.902;2023-09-19T07:47:58;16.30;99.90
20654;DHT22;21083;50.898;4.902;2023-09-19T07:50:30;16.30;99.90
20654;DHT22;21083;50.898;4.902;2023-09-19T07:52:57;16.30;99.90
20654;DHT22;21083;50.898;4.902;2023-09-19T07:55:24;16.40;99.90
20654;DHT22;21083;50.898;4.902;2023-09-19T07:57:52;16.30;99.90
20654;DHT22;21083;50.898;4.902;2023-09-19T08:00:19;16.20;99.90
20654;DHT22;21083;50.898;4.902;2023-09-19T08:02:46;16.30;99.90
20654;DHT22;21083;50.898;4.902;2023-09-19T08:05:15;16.40;99.90
20654;DHT22;21083;50.898;4.902;2023-09-19T08:07:45;16.50;99.90
20654;DHT22;21083;50.898;4.902;2023-09-19T08:10:15;16.50;99.90
20654;DHT22;21083;50.898;4.902;2023-09-19T08:12:46;16.50;99.90
20654;DHT22;21083;50.898;4.902;2023-09-19T08:15:14;16.50;99.90
20654;DHT22;21083;50.898;4.902;2023-09-19T08:17:42;16.70;99.90
20654;DHT22;21083;50.898;4.902;2023-09-19T08:20:09;16.70;99.90
20654;DHT22;21083;50.898;4.902;2023-09-19T08:22:46;16.80;99.90
20654;DHT22;21083;50.898;4.902;2023-09-19T08:25:14;16.80;99.90
20654;DHT22;21083;50.898;4.902;2023-09-19T08:27:43;17.00;99.90
20654;DHT22;21083;50.898;4.902;2023-09-19T08:30:13;17.00;99.90
20654;DHT22;21083;50.898;4.902;2023-09-19T08:32:41;17.00;99.90
20654;DHT22;21083;50.898;4.902;2023-09-19T08:35:08;17.10;99.90
20654;DHT22;21083;50.898;4.902;2023-09-19T08:37:36;17.10;99.90
20654;DHT22;21083;50.898;4.902;2023-09-19T08:40:05;17.10;99.90
20654;DHT22;21083;50.898;4.902;2023-09-19T08:42:47;17.20;99.90
20654;DHT22;21083;50.898;4.902;2023-09-19T08:45:15;17.10;99.90
20654;DHT22;21083;50.898;4.902;2023-09-19T08:47:46;17.20;99.90
20654;DHT22;21083;50.898;4.902;2023-09-19T08:50:19;17.40;99.90
20654;DHT22;21083;50.898;4.902;2023-09-19T08:52:51;17.40;99.90
20654;DHT22;21083;50.898;4.902;2023-09-19T08:55:26;17.40;99.90
20654;DHT22;21083;50.898;4.902;2023-09-19T08:57:59;17.40;99.90
20654;DHT22;21083;50.898;4.902;2023-09-19T09:00:28;17.30;99.90
20654;DHT22;21083;50.898;4.902;2023-09-19T09:02:56;17.30;99.90
20654;DHT22;21083;50.898;4.902;2023-09-19T09:05:24;17.40;99.90
20654;DHT22;21083;50.898;4.902;2023-09-19T09:07:52;17.60;99.90
20654;DHT22;21083;50.898;4.902;2023-09-19T09:10:22;17.60;99.90
20654;DHT22;21083;50.898;4.902;2023-09-19T09:12:51;17.60;99.90
20654;DHT22;21083;50.898;4.902;2023-09-19T09:15:21;17.70;99.90
20654;DHT22;21083;50.898;4.902;2023-09-19T09:17:49;17.70;99.90
20654;DHT22;21083;50.898;4.902;2023-09-19T09:20:16;17.70;99.90
20654;DHT22;21083;50.898;4.902;2023-09-19T09:22:51;17.80;99.90
20654;DHT22;21083;50.898;4.902;2023-09-19T09:25:19;17.80;99.90
20654;DHT22;21083;50.898;4.902;2023-09-19T09:28:00;17.90;99.90
20654;DHT22;21083;50.898;4.902;2023-09-19T09:30:33;18.00;99.90
20654;DHT22;21083;50.898;4.902;2023-09-19T09:33:10;18.10;99.90
20654;DHT22;21083;50.898;4.902;2023-09-19T09:35:46;18.20;99.90
20654;DHT22;21083;50.898;4.902;2023-09-19T09:38:13;18.30;99.90
20654;DHT22;21083;50.898;4.902;2023-09-19T09:40:49;18.50;99.90
20654;DHT22;21083;50.898;4.902;2023-09-19T09:43:30;18.60;99.90
20654;DHT22;21083;50.898;4.902;2023-09-19T09:46:16;18.50;99.90
20654;DHT22;21083;50.898;4.902;2023-09-19T09:49:02;18.50;99.90
20654;DHT22;21083;50.898;4.902;2023-09-19T09:51:45;18.60;99.90
20654;DHT22;21083;50.898;4.902;2023-09-19T09:54:23;18.60;99.90
20654;DHT22;21083;50.898;4.902;2023-09-19T09:56:56;18.70;99.90
20654;DHT22;21083;50.898;4.902;2023-09-19T09:59:54;18.60;99.90
20654;DHT22;21083;50.898;4.902;2023-09-19T10:02:26;18.60;99.90
20654;DHT22;21083;50.898;4.902;2023-09-19T10:04:59;18.60;99.90
20654;DHT22;21083;50.898;4.902;2023-09-19T10:07:36;18.70;99.90
20654;DHT22;21083;50.898;4.902;2023-09-19T10:10:07;18.80;99.90
20654;DHT22;21083;50.898;4.902;2023-09-19T10:12:46;18.90;99.90
20654;DHT22;21083;50.898;4.902;2023-09-19T10:15:17;18.90;99.90
20654;DHT22;21083;50.898;4.902;2023-09-19T10:17:46;18.80;99.90
20654;DHT22;21083;50.898;4.902;2023-09-19T10:20:15;18.70;99.90
20654;DHT22;21083;50.898;4.902;2023-09-19T10:23:00;18.70;99.90
20654;DHT22;21083;50.898;4.902;2023-09-19T10:25:28;18.80;99.90
20654;DHT22;21083;50.898;4.902;2023-09-19T10:27:57;18.80;99.90
20654;DHT22;21083;50.898;4.902;2023-09-19T10:30:31;18.90;99.90
20654;DHT22;21083;50.898;4.902;2023-09-19T10:33:01;18.90;99.90
20654;DHT22;21083;50.898;4.902;2023-09-19T10:35:29;19.00;99.90
20654;DHT22;21083;50.898;4.902;2023-09-19T10:38:00;19.20;99.90
20654;DHT22;21083;50.898;4.902;2023-09-19T10:40:28;19.30;99.90
20654;DHT22;21083;50.898;4.902;2023-09-19T10:43:02;19.40;99.90
20654;DHT22;21083;50.898;4.902;2023-09-19T10:45:34;19.60;99.90
20654;DHT22;21083;50.898;4.902;2023-09-19T10:48:04;19.70;99.90
20654;DHT22;21083;50.898;4.902;2023-09-19T10:50:35;19.70;99.90
20654;DHT22;21083;50.898;4.902;2023-09-19T10:53:06;19.70;99.90
20654;DHT22;21083;50.898;4.902;2023-09-19T10:55:34;19.70;99.90
20654;DHT22;21083;50.898;4.902;2023-09-19T10:58:02;19.80;99.90
20654;DHT22;21083;50.898;4.902;2023-09-19T11:00:54;20.10;99.90
20654;DHT22;21083;50.898;4.902;2023-09-19T11:03:23;20.40;99.90
20654;DHT22;21083;50.898;4.902;2023-09-19T11:06:17;20.40;99.90
20654;DHT22;21083;50.898;4.902;2023-09-19T11:08:58;20.20;99.90
20654;DHT22;21083;50.898;4.902;2023-09-19T11:11:48;20.30;99.90
20654;DHT22;21083;50.898;4.902;2023-09-19T11:14:37;20.40;99.90
20654;DHT22;21083;50.898;4.902;2023-09-19T11:20:23;20.30;99.90
20654;DHT22;21083;50.898;4.902;2023-09-19T11:23:23;20.50;99.90
20654;DHT22;21083;50.898;4.902;2023-09-19T11:25:52;20.60;99.90
20654;DHT22;21083;50.898;4.902;2023-09-19T11:28:30;20.60;99.90
20654;DHT22;21083;50.898;4.902;2023-09-19T11:30:57;20.70;99.90
20654;DHT22;21083;50.898;4.902;2023-09-19T11:33:25;20.70;99.90
20654;DHT22;21083;50.898;4.902;2023-09-19T11:36:02;20.90;99.90
20654;DHT22;21083;50.898;4.902;2023-09-19T11:38:57;21.20;99.90
20654;DHT22;21083;50.898;4.902;2023-09-19T11:41:39;21.20;99.90
20654;DHT22;21083;50.898;4.902;2023-09-19T11:44:32;21.20;99.90
20654;DHT22;21083;50.898;4.902;2023-09-19T11:47:01;21.50;99.90
20654;DHT22;21083;50.898;4.902;2023-09-19T11:49:30;21.50;99.90
20654;DHT22;21083;50.898;4.902;2023-09-19T11:52:00;21.50;99.90
20654;DHT22;21083;50.898;4.902;2023-09-19T11:54:31;21.30;99.90
20654;DHT22;21083;50.898;4.902;2023-09-19T11:57:00;20.90;99.90
20654;DHT22;21083;50.898;4.902;2023-09-19T11:59:29;20.90;99.90
20654;DHT22;21083;50.898;4.902;2023-09-19T12:01:57;20.90;99.90
20654;DHT22;21083;50.898;4.902;2023-09-19T12:04:37;21.00;99.90
20654;DHT22;21083;50.898;4.902;2023-09-19T12:07:09;21.00;99.90
20654;DHT22;21083;50.898;4.902;2023-09-19T12:09:41;21.10;99.90
20654;DHT22;21083;50.898;4.902;2023-09-19T12:12:10;21.00;99.90
20654;DHT22;21083;50.898;4.902;2023-09-19T12:14:41;20.90;99.90
20654;DHT22;21083;50.898;4.902;2023-09-19T12:17:09;20.90;99.90
20654;DHT22;21083;50.898;4.902;2023-09-19T12:19:36;20.70;99.90
20654;DHT22;21083;50.898;4.902;2023-09-19T12:22:04;20.60;99.90
20654;DHT22;21083;50.898;4.902;2023-09-19T12:24:33;20.30;99.90
20654;DHT22;21083;50.898;4.902;2023-09-19T12:27:05;20.30;99.90
20654;DHT22;21083;50.898;4.902;2023-09-19T12:29:42;20.40;99.90
20654;DHT22;21083;50.898;4.902;2023-09-19T12:32:12;20.30;99.90
20654;DHT22;21083;50.898;4.902;2023-09-19T12:34:42;20.30;99.90
20654;DHT22;21083;50.898;4.902;2023-09-19T12:37:11;20.20;99.90
20654;DHT22;21083;50.898;4.902;2023-09-19T12:39:41;20.10;99.90
20654;DHT22;21083;50.898;4.902;2023-09-19T12:42:13;20.00;99.90
20654;DHT22;21083;50.898;4.902;2023-09-19T12:44:41;20.20;99.90
20654;DHT22;21083;50.898;4.902;2023-09-19T12:47:12;20.20;99.90
20654;DHT22;21083;50.898;4.902;2023-09-19T12:50:09;20.10;99.90
20654;DHT22;21083;50.898;4.902;2023-09-19T12:52:41;20.10;99.90
20654;DHT22;21083;50.898;4.902;2023-09-19T12:55:19;20.10;99.90
20654;DHT22;21083;50.898;4.902;2023-09-19T12:57:56;20.20;99.90
20654;DHT22;21083;50.898;4.902;2023-09-19T13:00:32;20.20;99.90
20654;DHT22;21083;50.898;4.902;2023-09-19T13:03:17;20.10;99.90
20654;DHT22;21083;50.898;4.902;2023-09-19T13:05:51;20.10;99.90
20654;DHT22;21083;50.898;4.902;2023-09-19T13:08:25;20.20;99.90
20654;DHT22;21083;50.898;4.902;2023-09-19T13:11:07;20.30;99.90
20654;DHT22;21083;50.898;4.902;2023-09-19T13:13:36;20.50;99.90
20654;DHT22;21083;50.898;4.902;2023-09-19T13:16:03;20.50;99.90
20654;DHT22;21083;50.898;4.902;2023-09-19T13:18:42;20.70;99.90
20654;DHT22;21083;50.898;4.902;2023-09-19T13:21:11;21.10;99.90
20654;DHT22;21083;50.898;4.902;2023-09-19T13:23:42;21.20;99.90
20654;DHT22;21083;50.898;4.902;2023-09-19T13:26:11;21.20;99.90
20654;DHT22;21083;50.898;4.902;2023-09-19T13:28:40;21.20;99.90
20654;DHT22;21083;50.898;4.902;2023-09-19T13:31:07;21.10;99.90
20654;DHT22;21083;50.898;4.902;2023-09-19T13:33:42;20.90;99.90
20654;DHT22;21083;50.898;4.902;2023-09-19T13:36:11;20.80;99.90
20654;DHT22;21083;50.898;4.902;2023-09-19T13:38:39;20.60;99.90
20654;DHT22;21083;50.898;4.902;2023-09-19T13:41:08;20.50;99.90
20654;DHT22;21083;50.898;4.902;2023-09-19T13:43:37;20.30;99.90
20654;DHT22;21083;50.898;4.902;2023-09-19T13:46:05;20.20;99.90
20654;DHT22;21083;50.898;4.902;2023-09-19T13:48:37;20.10;99.90
20654;DHT22;21083;50.898;4.902;2023-09-19T13:51:04;20.20;99.90
20654;DHT22;21083;50.898;4.902;2023-09-19T13:53:31;20.10;99.90
20654;DHT22;21083;50.898;4.902;2023-09-19T13:55:58;20.20;99.90
20654;DHT22;21083;50.898;4.902;2023-09-19T13:58:25;20.20;99.90
20654;DHT22;21083;50.898;4.902;2023-09-19T14:00:56;20.20;99.90
20654;DHT22;21083;50.898;4.902;2023-09-19T14:03:24;20.20;99.90
20654;DHT22;21083;50.898;4.902;2023-09-19T14:05:54;20.20;99.90
20654;DHT22;21083;50.898;4.902;2023-09-19T14:08:21;20.10;99.90
20654;DHT22;21083;50.898;4.902;2023-09-19T14:10:49;20.10;99.90
20654;DHT22;21083;50.898;4.902;2023-09-19T14:13:16;20.10;99.90
20654;DHT22;21083;50.898;4.902;2023-09-19T14:15:43;20.10;99.90
20654;DHT22;21083;50.898;4.902;2023-09-19T14:18:11;20.10;99.90
20654;DHT22;21083;50.898;4.902;2023-09-19T14:20:38;20.10;99.90
20654;DHT22;21083;50.898;4.902;2023-09-19T14:23:06;20.10;99.90
20654;DHT22;21083;50.898;4.902;2023-09-19T14:25:34;20.00;99.90
20654;DHT22;21083;50.898;4.902;2023-09-19T14:28:02;20.00;99.90
20654;DHT22;21083;50.898;4.902;2023-09-19T14:30:29;20.00;99.90
20654;DHT22;21083;50.898;4.902;2023-09-19T14:32:56;20.10;99.90
20654;DHT22;21083;50.898;4.902;2023-09-19T14:35:25;20.20;99.90
20654;DHT22;21083;50.898;4.902;2023-09-19T14:37:53;20.20;99.90
20654;DHT22;21083;50.898;4.902;2023-09-19T14:40:20;20.10;99.90
20654;DHT22;21083;50.898;4.902;2023-09-19T14:42:48;20.10;99.90
20654;DHT22;21083;50.898;4.902;2023-09-19T14:45:15;20.10;99.90
20654;DHT22;21083;50.898;4.902;2023-09-19T14:47:45;20.20;99.90
20654;DHT22;21083;50.898;4.902;2023-09-19T14:50:12;20.10;99.90
20654;DHT22;21083;50.898;4.902;2023-09-19T14:52:42;20.00;99.90
20654;DHT22;21083;50.898;4.902;2023-09-19T14:55:09;20.20;99.90
20654;DHT22;21083;50.898;4.902;2023-09-19T14:57:41;20.20;99.90
20654;DHT22;21083;50.898;4.902;2023-09-19T15:00:11;20.30;99.90
20654;DHT22;21083;50.898;4.902;2023-09-19T15:02:39;20.40;99.90
20654;DHT22;21083;50.898;4.902;2023-09-19T15:05:07;20.60;99.90
20654;DHT22;21083;50.898;4.902;2023-09-19T15:07:35;20.60;99.90
20654;DHT22;21083;50.898;4.902;2023-09-19T15:10:05;20.60;99.90
20654;DHT22;21083;50.898;4.902;2023-09-19T15:12:35;20.90;99.90
20654;DHT22;21083;50.898;4.902;2023-09-19T15:15:04;20.90;99.90
20654;DHT22;21083;50.898;4.902;2023-09-19T15:17:33;20.90;99.90
20654;DHT22;21083;50.898;4.902;2023-09-19T15:20:00;20.90;99.90
20654;DHT22;21083;50.898;4.902;2023-09-19T15:22:32;20.90;99.90
20654;DHT22;21083;50.898;4.902;2023-09-19T15:25:00;20.90;99.90
20654;DHT22;21083;50.898;4.902;2023-09-19T15:27:28;20.80;99.90
20654;DHT22;21083;50.898;4.902;2023-09-19T15:29:56;20.70;99.90
20654;DHT22;21083;50.898;4.902;2023-09-19T15:32:23;20.70;99.90
20654;DHT22;21083;50.898;4.902;2023-09-19T15:34:51;20.50;99.90
20654;DHT22;21083;50.898;4.902;2023-09-19T15:37:17;20.30;99.90
20654;DHT22;21083;50.898;4.902;2023-09-19T15:39:46;20.20;99.90
20654;DHT22;21083;50.898;4.902;2023-09-19T15:42:12;20.20;99.90
20654;DHT22;21083;50.898;4.902;2023-09-19T15:44:43;20.10;99.90
20654;DHT22;21083;50.898;4.902;2023-09-19T15:47:12;20.20;99.90
20654;DHT22;21083;50.898;4.902;2023-09-19T15:49:39;20.10;99.90
20654;DHT22;21083;50.898;4.902;2023-09-19T15:52:06;19.90;99.90
20654;DHT22;21083;50.898;4.902;2023-09-19T15:54:34;20.00;99.90
20654;DHT22;21083;50.898;4.902;2023-09-19T15:57:07;19.90;99.90